createdAt,value
2023-05-15T00:00:50.635Z,972.73
2023-05-15T00:01:50.539Z,972.66
2023-05-15T00:02:50.541Z,972.67
2023-05-15T00:03:50.415Z,972.62
2023-05-15T00:04:50.323Z,972.58
2023-05-15T00:05:50.225Z,972.55
2023-05-15T00:06:50.135Z,972.56
2023-05-15T00:07:50.056Z,972.55
2023-05-15T00:08:49.977Z,972.54
2023-05-15T00:09:49.894Z,972.52
2023-05-15T00:11:00.920Z,972.55
2023-05-15T00:11:49.735Z,972.59
2023-05-15T00:12:49.660Z,972.59
2023-05-15T00:13:49.575Z,972.63
2023-05-15T00:14:49.500Z,972.65
2023-05-15T00:15:49.422Z,972.62
2023-05-15T00:16:49.351Z,972.65
2023-05-15T00:17:49.282Z,972.69
2023-05-15T00:18:49.224Z,972.68
2023-05-15T00:19:49.101Z,972.69
2023-05-15T00:20:49.013Z,972.69
2023-05-15T00:21:48.939Z,972.71
2023-05-15T00:22:48.851Z,972.69
2023-05-15T00:23:48.772Z,972.69
2023-05-15T00:24:48.699Z,972.66
2023-05-15T00:25:48.620Z,972.64
2023-05-15T00:26:48.552Z,972.63
2023-05-15T00:27:48.450Z,972.60
2023-05-15T00:28:48.384Z,972.64
2023-05-15T00:29:48.293Z,972.60
2023-05-15T00:30:48.233Z,972.60
2023-05-15T00:31:48.203Z,972.60
2023-05-15T00:32:48.074Z,972.57
2023-05-15T00:33:47.978Z,972.57
2023-05-15T00:34:47.900Z,972.59
2023-05-15T00:35:47.817Z,972.55
2023-05-15T00:36:47.737Z,972.57
2023-05-15T00:37:47.670Z,972.57
2023-05-15T00:38:47.580Z,972.57
2023-05-15T00:39:47.491Z,972.57
2023-05-15T00:40:47.417Z,972.57
2023-05-15T00:41:47.331Z,972.52
2023-05-15T00:42:47.260Z,972.53
2023-05-15T00:43:47.184Z,972.51
2023-05-15T00:44:47.090Z,972.50
2023-05-15T00:45:47.016Z,972.46
2023-05-15T00:46:46.959Z,972.44
2023-05-15T00:47:46.899Z,972.44
2023-05-15T00:48:46.778Z,972.46
2023-05-15T00:49:46.698Z,972.44
2023-05-15T00:50:46.612Z,972.41
2023-05-15T00:51:46.541Z,972.45
2023-05-15T00:52:46.449Z,972.41
2023-05-15T00:53:46.403Z,972.41
2023-05-15T00:54:46.301Z,972.43
2023-05-15T00:55:46.216Z,972.44
2023-05-15T00:56:46.138Z,972.41
2023-05-15T00:57:46.051Z,972.45
2023-05-15T00:58:45.964Z,972.44
2023-05-15T00:59:45.886Z,972.42
2023-05-15T01:00:45.853Z,972.44
2023-05-15T01:01:45.724Z,972.40
2023-05-15T01:02:45.772Z,972.44
2023-05-15T01:03:45.580Z,972.42
2023-05-15T01:04:45.481Z,972.41
2023-05-15T01:05:45.399Z,972.39
2023-05-15T01:06:45.327Z,972.38
2023-05-15T01:07:45.237Z,972.39
2023-05-15T01:08:45.155Z,972.41
2023-05-15T01:09:45.085Z,972.38
2023-05-15T01:10:44.995Z,972.41
2023-05-15T01:11:44.918Z,972.43
2023-05-15T01:12:44.846Z,972.43
2023-05-15T01:13:44.765Z,972.40
2023-05-15T01:14:44.674Z,972.35
2023-05-15T01:15:44.599Z,972.37
2023-05-15T01:16:44.511Z,972.38
2023-05-15T01:17:44.491Z,972.38
2023-05-15T01:18:44.471Z,972.36
2023-05-15T01:19:44.415Z,972.37
2023-05-15T01:20:44.192Z,972.38
2023-05-15T01:21:44.108Z,972.39
2023-05-15T01:22:44.030Z,972.38
2023-05-15T01:23:43.958Z,972.32
2023-05-15T01:24:43.867Z,972.34
2023-05-15T01:25:43.845Z,972.32
2023-05-15T01:26:43.705Z,972.31
2023-05-15T01:27:43.626Z,972.28
2023-05-15T01:28:43.599Z,972.31
2023-05-15T01:29:43.465Z,972.30
2023-05-15T01:30:43.383Z,972.27
2023-05-15T01:31:43.336Z,972.30
2023-05-15T01:32:43.248Z,972.30
2023-05-15T01:33:43.154Z,972.31
2023-05-15T01:34:43.060Z,972.33
2023-05-15T01:35:42.980Z,972.32
2023-05-15T01:36:42.902Z,972.32
2023-05-15T01:37:42.823Z,972.32
2023-05-15T01:38:42.731Z,972.30
2023-05-15T01:39:42.655Z,972.28
2023-05-15T01:40:42.579Z,972.26
2023-05-15T01:41:42.505Z,972.28
2023-05-15T01:42:42.406Z,972.27
2023-05-15T01:43:42.342Z,972.27
2023-05-15T01:44:42.255Z,972.27
2023-05-15T01:45:42.172Z,972.26
2023-05-15T01:46:42.109Z,972.25
2023-05-15T01:47:42.072Z,972.27
2023-05-15T01:48:41.920Z,972.24
2023-05-15T01:49:41.843Z,972.27
2023-05-15T01:50:41.760Z,972.27
2023-05-15T01:51:41.681Z,972.32
2023-05-15T01:52:41.604Z,972.32
2023-05-15T01:53:41.523Z,972.35
2023-05-15T01:54:42.600Z,972.37
2023-05-15T01:55:41.368Z,972.40
2023-05-15T01:56:41.284Z,972.39
2023-05-15T01:57:41.195Z,972.39
2023-05-15T01:58:41.128Z,972.35
2023-05-15T01:59:41.047Z,972.34
2023-05-15T02:00:40.952Z,972.33
2023-05-15T02:01:40.904Z,972.33
2023-05-15T02:02:40.840Z,972.32
2023-05-15T02:03:40.762Z,972.31
2023-05-15T02:04:40.624Z,972.27
2023-05-15T02:05:40.550Z,972.31
2023-05-15T02:06:40.484Z,972.25
2023-05-15T02:07:40.389Z,972.27
2023-05-15T02:08:40.307Z,972.25
2023-05-15T02:09:40.243Z,972.24
2023-05-15T02:10:40.155Z,972.20
2023-05-15T02:11:40.077Z,972.21
2023-05-15T02:12:39.978Z,972.21
2023-05-15T02:13:39.908Z,972.19
2023-05-15T02:14:39.825Z,972.23
2023-05-15T02:15:39.741Z,972.25
2023-05-15T02:16:39.761Z,972.23
2023-05-15T02:17:39.599Z,972.26
2023-05-15T02:18:39.527Z,972.25
2023-05-15T02:19:39.425Z,972.21
2023-05-15T02:20:39.342Z,972.19
2023-05-15T02:21:39.261Z,972.20
2023-05-15T02:22:39.189Z,972.22
2023-05-15T02:23:39.104Z,972.21
2023-05-15T02:24:39.010Z,972.20
2023-05-15T02:25:38.933Z,972.20
2023-05-15T02:26:38.850Z,972.21
2023-05-15T02:27:38.782Z,972.22
2023-05-15T02:28:38.686Z,972.24
2023-05-15T02:29:38.613Z,972.24
2023-05-15T02:30:38.521Z,972.26
2023-05-15T02:31:38.504Z,972.23
2023-05-15T02:32:38.434Z,972.21
2023-05-15T02:33:38.289Z,972.22
2023-05-15T02:34:38.202Z,972.21
2023-05-15T02:35:38.131Z,972.17
2023-05-15T02:36:38.036Z,972.17
2023-05-15T02:37:37.958Z,972.16
2023-05-15T02:38:37.883Z,972.16
2023-05-15T02:39:37.792Z,972.13
2023-05-15T02:40:37.713Z,972.15
2023-05-15T02:41:37.633Z,972.13
2023-05-15T02:42:37.547Z,972.12
2023-05-15T02:43:37.464Z,972.11
2023-05-15T02:44:37.405Z,972.12
2023-05-15T02:45:37.318Z,972.13
2023-05-15T02:46:37.236Z,972.11
2023-05-15T02:47:37.234Z,972.13
2023-05-15T02:48:37.061Z,972.09
2023-05-15T02:49:36.993Z,972.09
2023-05-15T02:50:36.895Z,972.07
2023-05-15T02:51:36.832Z,972.08
2023-05-15T02:52:36.739Z,972.08
2023-05-15T02:53:36.661Z,972.07
2023-05-15T02:54:36.590Z,972.08
2023-05-15T02:55:36.494Z,972.06
2023-05-15T02:56:36.411Z,972.03
2023-05-15T02:57:36.335Z,972.09
2023-05-15T02:58:36.245Z,972.03
2023-05-15T02:59:36.173Z,972.07
2023-05-15T03:00:36.096Z,972.03
2023-05-15T03:01:36.052Z,972.07
2023-05-15T03:02:35.930Z,972.12
2023-05-15T03:03:35.847Z,972.07
2023-05-15T03:04:35.854Z,972.07
2023-05-15T03:05:35.680Z,972.10
2023-05-15T03:06:35.594Z,972.07
2023-05-15T03:07:35.512Z,972.06
2023-05-15T03:08:35.447Z,972.08
2023-05-15T03:09:35.353Z,972.09
2023-05-15T03:10:35.284Z,972.06
2023-05-15T03:11:35.186Z,972.05
2023-05-15T03:12:35.104Z,972.05
2023-05-15T03:13:35.039Z,972.07
2023-05-15T03:14:34.949Z,972.04
2023-05-15T03:15:34.869Z,972.01
2023-05-15T03:16:34.832Z,972.02
2023-05-15T03:17:34.744Z,972.05
2023-05-15T03:18:34.658Z,972.03
2023-05-15T03:19:34.539Z,971.98
2023-05-15T03:20:34.467Z,971.99
2023-05-15T03:21:34.386Z,971.97
2023-05-15T03:22:34.296Z,971.95
2023-05-15T03:23:35.771Z,971.91
2023-05-15T03:24:34.133Z,971.93
2023-05-15T03:25:34.051Z,971.89
2023-05-15T03:26:33.985Z,971.92
2023-05-15T03:27:33.893Z,971.89
2023-05-15T03:28:33.814Z,971.88
2023-05-15T03:29:33.730Z,971.92
2023-05-15T03:30:33.651Z,971.92
2023-05-15T03:31:33.594Z,971.91
2023-05-15T03:32:33.503Z,971.90
2023-05-15T03:33:33.410Z,971.86
2023-05-15T03:34:33.321Z,971.86
2023-05-15T03:35:33.242Z,971.92
2023-05-15T03:36:33.165Z,971.90
2023-05-15T03:37:33.076Z,971.89
2023-05-15T03:38:32.988Z,971.88
2023-05-15T03:39:32.925Z,971.95
2023-05-15T03:40:32.830Z,971.98
2023-05-15T03:41:32.753Z,971.95
2023-05-15T03:42:32.666Z,971.96
2023-05-15T03:43:32.584Z,972.01
2023-05-15T03:44:32.507Z,971.98
2023-05-15T03:45:32.426Z,971.98
2023-05-15T03:46:32.419Z,972.01
2023-05-15T03:47:32.303Z,972.01
2023-05-15T03:48:32.181Z,972.01
2023-05-15T03:49:32.090Z,972.04
2023-05-15T03:50:32.020Z,972.03
2023-05-15T03:51:31.934Z,972.05
2023-05-15T03:52:31.852Z,972.05
2023-05-15T03:53:31.783Z,972.07
2023-05-15T03:54:31.694Z,972.05
2023-05-15T03:55:31.606Z,972.04
2023-05-15T03:56:31.523Z,972.05
2023-05-15T03:57:31.451Z,972.04
2023-05-15T03:58:31.357Z,972.08
2023-05-15T03:59:31.293Z,972.04
2023-05-15T04:00:31.211Z,972.04
2023-05-15T04:01:31.189Z,972.02
2023-05-15T04:02:31.070Z,972.00
2023-05-15T04:03:30.963Z,972.01
2023-05-15T04:04:30.873Z,972.00
2023-05-15T04:05:30.842Z,972.00
2023-05-15T04:06:30.709Z,972.01
2023-05-15T04:07:30.625Z,972.02
2023-05-15T04:08:30.540Z,971.98
2023-05-15T04:09:30.470Z,971.98
2023-05-15T04:10:30.388Z,971.97
2023-05-15T04:11:30.299Z,971.94
2023-05-15T04:12:30.217Z,971.96
2023-05-15T04:13:30.136Z,971.91
2023-05-15T04:14:30.060Z,971.92
2023-05-15T04:15:29.968Z,971.94
2023-05-15T04:16:29.946Z,971.97
2023-05-15T04:17:29.822Z,971.95
2023-05-15T04:18:29.767Z,971.93
2023-05-15T04:19:29.642Z,971.97
2023-05-15T04:20:29.571Z,971.96
2023-05-15T04:21:29.491Z,971.94
2023-05-15T04:22:29.403Z,971.95
2023-05-15T04:23:29.316Z,971.95
2023-05-15T04:24:29.251Z,971.93
2023-05-15T04:25:29.156Z,971.97
2023-05-15T04:26:29.150Z,971.99
2023-05-15T04:27:28.998Z,971.96
2023-05-15T04:28:30.453Z,971.95
2023-05-15T04:29:28.833Z,971.96
2023-05-15T04:30:28.757Z,971.93
2023-05-15T04:31:28.710Z,971.92
2023-05-15T04:32:28.628Z,971.92
2023-05-15T04:33:28.511Z,971.93
2023-05-15T04:34:28.417Z,971.90
2023-05-15T04:35:28.374Z,971.90
2023-05-15T04:36:28.256Z,971.90
2023-05-15T04:37:28.170Z,971.87
2023-05-15T04:38:28.100Z,971.89
2023-05-15T04:39:28.023Z,971.88
2023-05-15T04:40:27.928Z,971.90
2023-05-15T04:41:27.850Z,971.88
2023-05-15T04:42:27.764Z,971.86
2023-05-15T04:43:27.705Z,971.88
2023-05-15T04:44:27.598Z,971.87
2023-05-15T04:45:27.515Z,971.88
2023-05-15T04:46:27.434Z,971.89
2023-05-15T04:47:27.462Z,971.87
2023-05-15T04:48:27.274Z,971.87
2023-05-15T04:49:27.191Z,971.86
2023-05-15T04:50:27.152Z,971.86
2023-05-15T04:51:27.033Z,971.88
2023-05-15T04:52:26.949Z,971.89
2023-05-15T04:53:26.873Z,971.92
2023-05-15T04:54:26.782Z,971.89
2023-05-15T04:55:26.878Z,971.88
2023-05-15T04:56:26.627Z,971.89
2023-05-15T04:57:26.566Z,971.88
2023-05-15T04:58:26.462Z,971.92
2023-05-15T04:59:26.380Z,971.89
2023-05-15T05:00:26.302Z,971.84
2023-05-15T05:01:26.289Z,971.88
2023-05-15T05:02:26.160Z,971.87
2023-05-15T05:03:26.092Z,971.88
2023-05-15T05:04:25.969Z,971.85
2023-05-15T05:05:26.102Z,971.84
2023-05-15T05:06:25.824Z,971.87
2023-05-15T05:07:25.733Z,971.86
2023-05-15T05:08:25.653Z,971.86
2023-05-15T05:09:25.561Z,971.86
2023-05-15T05:10:25.481Z,971.89
2023-05-15T05:11:25.396Z,971.88
2023-05-15T05:12:26.655Z,971.86
2023-05-15T05:13:25.237Z,971.89
2023-05-15T05:14:25.154Z,971.87
2023-05-15T05:15:25.328Z,971.84
2023-05-15T05:16:25.045Z,971.87
2023-05-15T05:17:24.946Z,971.88
2023-05-15T05:18:24.832Z,971.87
2023-05-15T05:19:24.748Z,971.89
2023-05-15T05:20:24.667Z,971.89
2023-05-15T05:21:24.597Z,971.94
2023-05-15T05:22:24.510Z,971.88
2023-05-15T05:23:24.423Z,971.93
2023-05-15T05:24:24.405Z,971.92
2023-05-15T05:25:24.541Z,971.91
2023-05-15T05:26:24.180Z,971.91
2023-05-15T05:27:24.134Z,971.91
2023-05-15T05:28:24.017Z,971.90
2023-05-15T05:29:23.931Z,971.95
2023-05-15T05:30:23.869Z,971.91
2023-05-15T05:31:23.838Z,971.90
2023-05-15T05:32:23.735Z,971.90
2023-05-15T05:33:23.607Z,971.92
2023-05-15T05:34:23.525Z,971.90
2023-05-15T05:35:23.693Z,971.89
2023-05-15T05:36:23.372Z,971.91
2023-05-15T05:37:23.277Z,971.89
2023-05-15T05:38:23.192Z,971.90
2023-05-15T05:39:23.122Z,971.91
2023-05-15T05:40:23.041Z,971.92
2023-05-15T05:41:22.953Z,971.90
2023-05-15T05:42:22.875Z,971.91
2023-05-15T05:43:22.794Z,971.93
2023-05-15T05:44:22.710Z,971.92
2023-05-15T05:45:22.793Z,971.95
2023-05-15T05:46:22.622Z,971.99
2023-05-15T05:47:22.493Z,971.95
2023-05-15T05:48:22.396Z,971.94
2023-05-15T05:49:22.303Z,971.94
2023-05-15T05:50:22.238Z,971.91
2023-05-15T05:51:22.132Z,971.91
2023-05-15T05:52:22.053Z,971.96
2023-05-15T05:53:21.976Z,971.91
2023-05-15T05:54:21.899Z,971.90
2023-05-15T05:55:21.813Z,971.91
2023-05-15T05:56:21.769Z,971.92
2023-05-15T05:57:21.657Z,971.93
2023-05-15T05:58:25.481Z,971.92
2023-05-15T05:59:21.500Z,971.91
2023-05-15T06:00:21.413Z,971.90
2023-05-15T06:01:21.340Z,971.90
2023-05-15T06:02:21.267Z,971.91
2023-05-15T06:03:21.279Z,971.96
2023-05-15T06:04:21.116Z,971.96
2023-05-15T06:05:20.997Z,971.97
2023-05-15T06:06:20.936Z,971.96
2023-05-15T06:07:20.868Z,971.96
2023-05-15T06:08:20.755Z,971.96
2023-05-15T06:09:20.678Z,971.93
2023-05-15T06:10:20.606Z,971.93
2023-05-15T06:11:20.520Z,971.95
2023-05-15T06:12:22.876Z,971.93
2023-05-15T06:13:20.374Z,971.96
2023-05-15T06:14:21.315Z,971.95
2023-05-15T06:15:20.192Z,971.96
2023-05-15T06:16:20.210Z,971.95
2023-05-15T06:17:20.026Z,971.96
2023-05-15T06:18:19.957Z,971.97
2023-05-15T06:19:19.952Z,971.97
2023-05-15T06:20:19.790Z,971.97
2023-05-15T06:21:19.708Z,971.96
2023-05-15T06:22:19.657Z,971.95
2023-05-15T06:23:19.545Z,971.94
2023-05-15T06:24:19.476Z,971.89
2023-05-15T06:25:19.379Z,971.93
2023-05-15T06:26:19.307Z,971.91
2023-05-15T06:27:19.221Z,971.94
2023-05-15T06:28:19.153Z,971.93
2023-05-15T06:29:19.068Z,971.91
2023-05-15T06:30:18.986Z,971.90
2023-05-15T06:31:18.983Z,971.92
2023-05-15T06:32:18.831Z,971.90
2023-05-15T06:33:18.739Z,971.88
2023-05-15T06:34:18.662Z,971.91
2023-05-15T06:35:18.602Z,971.92
2023-05-15T06:36:18.503Z,971.93
2023-05-15T06:37:18.428Z,971.85
2023-05-15T06:38:18.355Z,971.84
2023-05-15T06:39:18.266Z,971.85
2023-05-15T06:40:18.190Z,971.82
2023-05-15T06:41:18.106Z,971.82
2023-05-15T06:42:18.035Z,971.83
2023-05-15T06:43:17.965Z,971.83
2023-05-15T06:44:17.862Z,971.78
2023-05-15T06:45:17.790Z,971.84
2023-05-15T06:46:17.753Z,971.81
2023-05-15T06:47:17.622Z,971.84
2023-05-15T06:48:17.611Z,971.88
2023-05-15T06:49:17.461Z,971.86
2023-05-15T06:50:17.390Z,971.87
2023-05-15T06:51:17.307Z,971.90
2023-05-15T06:52:17.237Z,971.88
2023-05-15T06:53:17.149Z,971.91
2023-05-15T06:54:17.065Z,971.90
2023-05-15T06:55:16.986Z,971.88
2023-05-15T06:56:16.901Z,971.87
2023-05-15T06:57:16.833Z,971.88
2023-05-15T06:58:16.758Z,971.87
2023-05-15T06:59:16.688Z,971.89
2023-05-15T07:00:16.610Z,971.89
2023-05-15T07:01:16.523Z,971.92
2023-05-15T07:02:16.464Z,971.90
2023-05-15T07:03:16.343Z,971.89
2023-05-15T07:04:16.302Z,971.94
2023-05-15T07:05:16.236Z,971.92
2023-05-15T07:06:16.099Z,971.88
2023-05-15T07:07:16.028Z,971.90
2023-05-15T07:08:15.942Z,971.89
2023-05-15T07:09:15.874Z,971.90
2023-05-15T07:10:15.788Z,971.91
2023-05-15T07:11:15.706Z,971.93
2023-05-15T07:12:15.631Z,971.89
2023-05-15T07:13:15.554Z,971.93
2023-05-15T07:14:15.463Z,971.93
2023-05-15T07:15:15.389Z,971.95
2023-05-15T07:16:15.312Z,971.85
2023-05-15T07:17:15.263Z,971.90
2023-05-15T07:18:15.185Z,971.92
2023-05-15T07:19:15.086Z,971.91
2023-05-15T07:20:14.994Z,971.91
2023-05-15T07:21:14.910Z,971.90
2023-05-15T07:22:14.840Z,971.93
2023-05-15T07:23:14.754Z,971.93
2023-05-15T07:24:14.690Z,971.91
2023-05-15T07:25:16.809Z,971.94
2023-05-15T07:26:20.072Z,971.90
2023-05-15T07:27:14.435Z,971.91
2023-05-15T07:28:14.362Z,971.96
2023-05-15T07:29:14.274Z,971.94
2023-05-15T07:30:14.218Z,971.97
2023-05-15T07:31:14.149Z,971.96
2023-05-15T07:32:14.044Z,971.94
2023-05-15T07:33:13.971Z,971.91
2023-05-15T07:34:13.893Z,971.93
2023-05-15T07:35:13.809Z,971.94
2023-05-15T07:36:13.728Z,971.96
2023-05-15T07:37:16.117Z,971.96
2023-05-15T07:38:13.610Z,971.93
2023-05-15T07:39:13.507Z,971.87
2023-05-15T07:40:13.409Z,971.88
2023-05-15T07:41:13.330Z,971.88
2023-05-15T07:42:13.307Z,971.93
2023-05-15T07:43:13.180Z,971.92
2023-05-15T07:44:13.110Z,971.89
2023-05-15T07:45:13.081Z,971.85
2023-05-15T07:46:12.998Z,971.88
2023-05-15T07:47:12.884Z,971.90
2023-05-15T07:48:12.816Z,971.94
2023-05-15T07:49:12.713Z,971.92
2023-05-15T07:50:12.628Z,971.91
2023-05-15T07:51:12.547Z,971.87
2023-05-15T07:52:12.470Z,971.88
2023-05-15T07:53:12.410Z,971.91
2023-05-15T07:54:12.321Z,971.92
2023-05-15T07:55:12.251Z,971.88
2023-05-15T07:56:12.160Z,971.86
2023-05-15T07:57:12.091Z,971.85
2023-05-15T07:58:12.015Z,971.85
2023-05-15T07:59:11.961Z,971.87
2023-05-15T08:00:11.853Z,971.86
2023-05-15T08:01:11.780Z,971.88
2023-05-15T08:02:11.775Z,971.83
2023-05-15T08:03:11.773Z,971.87
2023-05-15T08:04:11.659Z,971.83
2023-05-15T08:05:11.461Z,971.80
2023-05-15T08:06:11.381Z,971.81
2023-05-15T08:07:11.315Z,971.82
2023-05-15T08:08:11.241Z,971.80
2023-05-15T08:09:11.175Z,971.78
2023-05-15T08:10:11.077Z,971.80
2023-05-15T08:11:11.004Z,971.73
2023-05-15T08:12:10.917Z,971.75
2023-05-15T08:13:10.844Z,971.75
2023-05-15T08:14:13.628Z,971.76
2023-05-15T08:15:10.708Z,971.77
2023-05-15T08:16:10.689Z,971.78
2023-05-15T08:17:10.533Z,971.74
2023-05-15T08:18:10.519Z,971.79
2023-05-15T08:19:10.414Z,971.81
2023-05-15T08:20:10.306Z,971.80
2023-05-15T08:21:10.223Z,971.78
2023-05-15T08:22:10.144Z,971.79
2023-05-15T08:23:10.083Z,971.78
2023-05-15T08:24:09.998Z,971.80
2023-05-15T08:25:09.918Z,971.78
2023-05-15T08:26:09.846Z,971.78
2023-05-15T08:27:09.773Z,971.80
2023-05-15T08:28:09.684Z,971.79
2023-05-15T08:29:09.611Z,971.79
2023-05-15T08:30:09.534Z,971.82
2023-05-15T08:31:09.499Z,971.77
2023-05-15T08:32:09.377Z,971.78
2023-05-15T08:33:09.358Z,971.75
2023-05-15T08:34:09.232Z,971.74
2023-05-15T08:35:09.147Z,971.78
2023-05-15T08:36:09.113Z,971.76
2023-05-15T08:37:09.009Z,971.77
2023-05-15T08:38:08.918Z,971.74
2023-05-15T08:39:08.855Z,971.76
2023-05-15T08:40:08.770Z,971.75
2023-05-15T08:41:08.685Z,971.74
2023-05-15T08:42:08.611Z,971.78
2023-05-15T08:43:08.542Z,971.78
2023-05-15T08:44:08.460Z,971.76
2023-05-15T08:45:08.414Z,971.79
2023-05-15T08:46:08.340Z,971.77
2023-05-15T08:47:08.294Z,971.78
2023-05-15T08:48:08.269Z,971.77
2023-05-15T08:49:08.192Z,971.79
2023-05-15T08:50:08.010Z,971.77
2023-05-15T08:51:07.925Z,971.76
2023-05-15T08:52:07.854Z,971.77
2023-05-15T08:53:07.783Z,971.73
2023-05-15T08:54:07.691Z,971.73
2023-05-15T08:55:07.631Z,971.75
2023-05-15T08:56:07.549Z,971.72
2023-05-15T08:57:07.472Z,971.75
2023-05-15T08:58:07.389Z,971.78
2023-05-15T08:59:07.312Z,971.74
2023-05-15T09:00:08.960Z,971.76
2023-05-15T09:01:07.157Z,971.76
2023-05-15T09:02:07.184Z,971.80
2023-05-15T09:03:07.104Z,971.81
2023-05-15T09:04:07.098Z,971.80
2023-05-15T09:05:06.858Z,971.73
2023-05-15T09:06:06.786Z,971.73
2023-05-15T09:07:06.709Z,971.76
2023-05-15T09:08:06.668Z,971.76
2023-05-15T09:09:06.564Z,971.76
2023-05-15T09:10:06.479Z,971.74
2023-05-15T09:11:06.404Z,971.73
2023-05-15T09:12:06.320Z,971.72
2023-05-15T09:13:06.244Z,971.72
2023-05-15T09:14:06.183Z,971.69
2023-05-15T09:15:06.098Z,971.69
2023-05-15T09:16:06.028Z,971.66
2023-05-15T09:17:06.059Z,971.70
2023-05-15T09:18:05.975Z,971.73
2023-05-15T09:19:05.827Z,971.70
2023-05-15T09:20:05.730Z,971.69
2023-05-15T09:21:05.639Z,971.69
2023-05-15T09:22:05.565Z,971.70
2023-05-15T09:23:05.489Z,971.70
2023-05-15T09:24:05.421Z,971.68
2023-05-15T09:25:05.341Z,971.65
2023-05-15T09:26:05.273Z,971.65
2023-05-15T09:27:05.195Z,971.61
2023-05-15T09:28:05.118Z,971.59
2023-05-15T09:29:05.044Z,971.61
2023-05-15T09:30:04.970Z,971.67
2023-05-15T09:31:04.906Z,971.64
2023-05-15T09:32:04.938Z,971.59
2023-05-15T09:33:04.799Z,971.62
2023-05-15T09:34:04.799Z,971.60
2023-05-15T09:35:04.589Z,971.62
2023-05-15T09:36:04.512Z,971.63
2023-05-15T09:37:04.445Z,971.65
2023-05-15T09:38:04.371Z,971.59
2023-05-15T09:39:04.292Z,971.53
2023-05-15T09:40:04.221Z,971.56
2023-05-15T09:41:04.140Z,971.53
2023-05-15T09:42:04.061Z,971.54
2023-05-15T09:43:03.995Z,971.51
2023-05-15T09:44:03.913Z,971.50
2023-05-15T09:45:03.835Z,971.48
2023-05-15T09:46:03.832Z,971.46
2023-05-15T09:47:03.748Z,971.45
2023-05-15T09:48:03.665Z,971.44
2023-05-15T09:49:03.533Z,971.48
2023-05-15T09:50:03.467Z,971.49
2023-05-15T09:51:03.384Z,971.47
2023-05-15T09:52:03.312Z,971.47
2023-05-15T09:53:03.236Z,971.49
2023-05-15T09:54:03.167Z,971.49
2023-05-15T09:55:03.086Z,971.50
2023-05-15T09:56:03.018Z,971.50
2023-05-15T09:57:02.943Z,971.53
2023-05-15T09:58:02.931Z,971.47
2023-05-15T09:59:02.793Z,971.49
2023-05-15T10:00:02.720Z,971.46
2023-05-15T10:01:02.678Z,971.45
2023-05-15T10:02:02.608Z,971.46
2023-05-15T10:03:02.606Z,971.43
2023-05-15T10:04:02.423Z,971.44
2023-05-15T10:05:02.409Z,971.40
2023-05-15T10:06:02.355Z,971.45
2023-05-15T10:07:02.193Z,971.42
2023-05-15T10:08:02.122Z,971.40
2023-05-15T10:09:02.042Z,971.41
2023-05-15T10:10:02.016Z,971.44
2023-05-15T10:11:01.890Z,971.40
2023-05-15T10:12:01.819Z,971.35
2023-05-15T10:13:01.745Z,971.41
2023-05-15T10:14:01.673Z,971.39
2023-05-15T10:15:01.586Z,971.40
2023-05-15T10:16:01.553Z,971.39
2023-05-15T10:17:01.451Z,971.40
2023-05-15T10:18:01.397Z,971.39
2023-05-15T10:19:02.863Z,971.35
2023-05-15T10:20:01.226Z,971.34
2023-05-15T10:21:01.144Z,971.33
2023-05-15T10:22:01.075Z,971.30
2023-05-15T10:23:01.020Z,971.33
2023-05-15T10:24:00.932Z,971.34
2023-05-15T10:25:00.844Z,971.32
2023-05-15T10:26:00.766Z,971.31
2023-05-15T10:27:00.700Z,971.24
2023-05-15T10:28:00.623Z,971.22
2023-05-15T10:29:00.563Z,971.21
2023-05-15T10:30:00.472Z,971.23
2023-05-15T10:31:00.400Z,971.24
2023-05-15T10:32:00.331Z,971.20
2023-05-15T10:33:00.304Z,971.21
2023-05-15T10:34:00.177Z,971.22
2023-05-15T10:35:00.144Z,971.24
2023-05-15T10:36:00.039Z,971.20
2023-05-15T10:36:59.950Z,971.20
2023-05-15T10:37:59.885Z,971.17
2023-05-15T10:38:59.819Z,971.15
2023-05-15T10:39:59.728Z,971.11
2023-05-15T10:41:13.059Z,971.11
2023-05-15T10:41:59.589Z,971.13
2023-05-15T10:42:59.533Z,971.15
2023-05-15T10:43:59.446Z,971.16
2023-05-15T10:44:59.360Z,971.14
2023-05-15T10:45:59.280Z,971.14
2023-05-15T10:46:59.277Z,971.13
2023-05-15T10:47:59.163Z,971.12
2023-05-15T10:48:59.060Z,971.12
2023-05-15T10:49:58.985Z,971.17
2023-05-15T10:50:58.918Z,971.20
2023-05-15T10:51:58.834Z,971.18
2023-05-15T10:52:58.768Z,971.21
2023-05-15T10:53:58.686Z,971.24
2023-05-15T10:54:58.608Z,971.22
2023-05-15T10:55:58.555Z,971.23
2023-05-15T10:56:58.473Z,971.24
2023-05-15T10:57:58.411Z,971.26
2023-05-15T10:58:58.307Z,971.24
2023-05-15T10:59:58.252Z,971.25
2023-05-15T11:00:58.211Z,971.26
2023-05-15T11:01:58.084Z,971.25
2023-05-15T11:02:58.048Z,971.27
2023-05-15T11:03:57.952Z,971.23
2023-05-15T11:04:57.877Z,971.24
2023-05-15T11:05:57.794Z,971.28
2023-05-15T11:06:57.709Z,971.26
2023-05-15T11:07:57.632Z,971.22
2023-05-15T11:08:57.565Z,971.26
2023-05-15T11:09:57.498Z,971.23
2023-05-15T11:10:57.421Z,971.25
2023-05-15T11:11:57.894Z,971.22
2023-05-15T11:12:57.273Z,971.17
2023-05-15T11:13:57.191Z,971.12
2023-05-15T11:14:57.124Z,971.16
2023-05-15T11:15:57.043Z,971.13
2023-05-15T11:16:57.000Z,971.13
2023-05-15T11:17:56.924Z,971.12
2023-05-15T11:18:56.853Z,971.12
2023-05-15T11:19:56.747Z,971.10
2023-05-15T11:20:56.669Z,971.10
2023-05-15T11:21:56.602Z,971.10
2023-05-15T11:22:56.531Z,971.08
2023-05-15T11:23:56.447Z,971.05
2023-05-15T11:24:56.374Z,971.04
2023-05-15T11:25:56.307Z,971.01
2023-05-15T11:26:58.583Z,971.01
2023-05-15T11:27:56.152Z,970.93
2023-05-15T11:28:56.072Z,970.99
2023-05-15T11:29:56.057Z,970.94
2023-05-15T11:30:55.926Z,970.95
2023-05-15T11:31:55.849Z,970.93
2023-05-15T11:32:55.854Z,970.89
2023-05-15T11:33:55.704Z,970.88
2023-05-15T11:34:55.621Z,970.85
2023-05-15T11:35:55.557Z,970.88
2023-05-15T11:36:55.485Z,970.87
2023-05-15T11:37:55.400Z,970.85
2023-05-15T11:38:55.333Z,970.86
2023-05-15T11:39:55.255Z,970.86
2023-05-15T11:40:55.182Z,970.84
2023-05-15T11:41:55.122Z,970.82
2023-05-15T11:42:55.031Z,970.84
2023-05-15T11:43:54.968Z,970.77
2023-05-15T11:44:54.885Z,970.77
2023-05-15T11:45:54.806Z,970.79
2023-05-15T11:46:54.799Z,970.81
2023-05-15T11:47:54.687Z,970.79
2023-05-15T11:48:54.589Z,970.80
2023-05-15T11:49:54.510Z,970.82
2023-05-15T11:50:54.440Z,970.82
2023-05-15T11:51:54.367Z,970.81
2023-05-15T11:52:54.290Z,970.82
2023-05-15T11:53:54.220Z,970.81
2023-05-15T11:54:54.142Z,970.80
2023-05-15T11:55:54.075Z,970.77
2023-05-15T11:56:54.004Z,970.78
2023-05-15T11:57:53.936Z,970.74
2023-05-15T11:58:53.850Z,970.72
2023-05-15T11:59:53.774Z,970.72
2023-05-15T12:00:53.732Z,970.70
2023-05-15T12:01:53.640Z,970.73
2023-05-15T12:02:53.674Z,970.72
2023-05-15T12:03:53.573Z,970.70
2023-05-15T12:04:53.460Z,970.66
2023-05-15T12:05:59.544Z,970.67
2023-05-15T12:06:53.266Z,970.64
2023-05-15T12:07:53.198Z,970.63
2023-05-15T12:08:53.202Z,970.63
2023-05-15T12:09:53.047Z,970.65
2023-05-15T12:10:52.970Z,970.61
2023-05-15T12:11:52.909Z,970.59
2023-05-15T12:12:52.829Z,970.63
2023-05-15T12:13:52.756Z,970.61
2023-05-15T12:14:52.675Z,970.59
2023-05-15T12:15:52.618Z,970.60
2023-05-15T12:16:52.608Z,970.56
2023-05-15T12:17:52.494Z,970.63
2023-05-15T12:18:52.539Z,970.58
2023-05-15T12:19:52.312Z,970.56
2023-05-15T12:20:52.236Z,970.55
2023-05-15T12:21:52.174Z,970.51
2023-05-15T12:22:52.087Z,970.52
2023-05-15T12:24:03.548Z,970.48
2023-05-15T12:24:51.970Z,970.50
2023-05-15T12:25:51.875Z,970.46
2023-05-15T12:26:51.798Z,970.48
2023-05-15T12:27:51.745Z,970.47